Time;durP1;ratioP1;P1;durP2;ratioP2;P2;SDS_P1;SDS_P2;PMS_P1;PMS_P2;Temp;Humidity;BMP_temperature;BMP_pressure;BME280_temperature;BME280_humidity;BME280_pressure;Samples;Min_cycle;Max_cycle;Signal;HPM_P1;HPM_P2
2022/09/05 00:00:48;;;;;;;;;;;;;;;26.23;48.76;101650.84;104956;1302;62078;-83
2022/09/05 00:03:16;;;;;;;;;;;;;;;26.23;48.95;101648.13;104895;1303;62071;-81
2022/09/05 00:05:54;;;;;;;;;;;;;;;26.23;48.82;101645.79;104881;1302;72655;-82
2022/09/05 00:08:52;;;;;;;;;;;;;;;26.22;48.71;101645.44;104778;1303;75867;-85
2022/09/05 00:11:20;;;;;;;;;;;;;;;26.23;48.88;101643.98;104719;1304;62088;-82
2022/09/05 00:13:49;;;;;;;;;;;;;;;26.22;48.95;101642.02;104921;1303;61963;-82
2022/09/05 00:16:34;;;;;;;;;;;;;;;26.23;48.85;101640.73;104960;1302;72785;-83
2022/09/05 00:19:09;;;;;;;;;;;;;;;26.22;48.89;101639.88;104951;1302;75566;-82
2022/09/05 00:21:50;;;;;;;;;;;;;;;26.22;48.64;101638.83;104882;1303;61986;-82
2022/09/05 00:24:34;;;;;;;;;;;;;;;26.22;48.59;101640.63;105000;1303;61987;-82
2022/09/05 00:27:00;;;;;;;;;;;;;;;26.22;48.77;101638.81;104885;1303;72306;-82
2022/09/05 00:29:48;;;;;;;;;;;;;;;26.22;49.01;101632.70;104965;1302;62190;-81
2022/09/05 00:32:35;;;;;;;;;;;;;;;26.21;48.74;101626.41;104908;1303;61963;-83
2022/09/05 00:35:06;;;;;;;;;;;;;;;26.21;48.84;101628.61;104627;1309;62369;-81
2022/09/05 00:37:45;;;;;;;;;;;;;;;26.21;48.82;101632.77;104618;1309;73718;-80
2022/09/05 00:40:26;;;;;;;;;;;;;;;26.21;48.89;101632.96;104621;1309;75662;-82
2022/09/05 00:42:52;;;;;;;;;;;;;;;26.21;48.73;101633.53;104631;1309;62267;-81
2022/09/05 00:45:24;;;;;;;;;;;;;;;26.21;48.77;101637.30;104618;1309;62087;-80
2022/09/05 00:47:54;;;;;;;;;;;;;;;26.20;48.79;101635.52;104650;1307;74289;-81
2022/09/05 00:50:23;;;;;;;;;;;;;;;26.21;48.87;101637.67;104658;1308;76547;-82
2022/09/05 00:53:21;;;;;;;;;;;;;;;26.20;48.77;101639.15;104579;1309;62104;-82
2022/09/05 00:55:49;;;;;;;;;;;;;;;26.20;48.82;101639.89;104509;1309;62072;-82
2022/09/05 00:58:34;;;;;;;;;;;;;;;26.20;48.89;101638.63;104606;1309;73047;-79
2022/09/05 01:00:59;;;;;;;;;;;;;;;26.20;48.82;101640.95;104623;1307;76480;-80
2022/09/05 01:03:33;;;;;;;;;;;;;;;26.20;48.92;101646.19;104600;1308;62357;-82
2022/09/05 01:06:17;;;;;;;;;;;;;;;26.20;48.86;101648.00;104631;1309;62078;-83
2022/09/05 01:09:01;;;;;;;;;;;;;;;26.20;48.78;101648.56;104608;1306;73620;-85
2022/09/05 01:11:36;;;;;;;;;;;;;;;26.20;48.94;101649.66;104627;1309;76571;-82
2022/09/05 01:14:22;;;;;;;;;;;;;;;26.19;48.84;101648.77;104981;1302;62106;-79
2022/09/05 01:17:03;;;;;;;;;;;;;;;26.19;48.89;101645.36;104976;1302;62052;-82
2022/09/05 01:19:35;;;;;;;;;;;;;;;26.19;48.87;101640.34;104988;1302;72746;-81
2022/09/05 01:22:04;;;;;;;;;;;;;;;26.19;49.00;101643.73;105001;1302;74936;-81
2022/09/05 01:24:41;;;;;;;;;;;;;;;26.19;48.73;101643.94;104943;1302;61934;-82
2022/09/05 01:27:16;;;;;;;;;;;;;;;26.19;48.85;101641.08;104859;1304;61971;-82
2022/09/05 01:29:45;;;;;;;;;;;;;;;26.18;48.96;101636.27;104976;1302;73613;-79
2022/09/05 01:32:22;;;;;;;;;;;;;;;26.18;48.79;101630.29;104979;1302;76282;-81
2022/09/05 01:34:56;;;;;;;;;;;;;;;26.18;48.89;101633.02;104953;1302;61903;-83
2022/09/05 01:37:26;;;;;;;;;;;;;;;26.18;48.83;101634.16;104895;1303;61963;-79
2022/09/05 01:40:10;;;;;;;;;;;;;;;26.17;48.74;101629.16;104957;1302;72859;-83
2022/09/05 01:42:38;;;;;;;;;;;;;;;26.17;48.99;101628.63;104875;1303;75633;-82
2022/09/05 01:45:06;;;;;;;;;;;;;;;26.17;48.80;101632.06;104985;1302;61880;-82
2022/09/05 01:47:55;;;;;;;;;;;;;;;26.16;48.81;101633.31;104850;1304;62014;-82
2022/09/05 01:50:30;;;;;;;;;;;;;;;26.16;48.84;101632.98;104871;1302;72884;-79
2022/09/05 01:53:01;;;;;;;;;;;;;;;26.16;49.07;101633.90;104856;1303;75739;-83
2022/09/05 01:55:31;;;;;;;;;;;;;;;26.16;48.93;101634.47;104854;1304;62023;-81
2022/09/05 01:58:15;;;;;;;;;;;;;;;26.16;48.88;101634.27;104872;1303;62225;-82
2022/09/05 02:00:49;;;;;;;;;;;;;;;26.16;48.90;101633.73;104850;1304;72942;-82
2022/09/05 02:03:21;;;;;;;;;;;;;;;26.16;48.82;101634.66;104986;1302;74544;-83
2022/09/05 02:05:54;;;;;;;;;;;;;;;26.15;48.93;101637.03;104898;1302;61935;-82
2022/09/05 02:08:28;;;;;;;;;;;;;;;26.15;49.03;101634.88;104910;1302;62204;-83
2022/09/05 02:10:53;;;;;;;;;;;;;;;26.15;49.02;101633.06;104949;1302;73303;-83
2022/09/05 02:13:38;;;;;;;;;;;;;;;26.15;49.05;101633.25;104967;1302;63361;-81
2022/09/05 02:16:06;;;;;;;;;;;;;;;26.15;48.91;101630.02;104966;1302;62052;-82
2022/09/05 02:18:38;;;;;;;;;;;;;;;26.15;49.07;101633.26;105001;1302;62084;-82
2022/09/05 02:21:23;;;;;;;;;;;;;;;26.15;48.85;101631.67;104996;1302;73936;-85
2022/09/05 02:23:53;;;;;;;;;;;;;;;26.14;48.78;101633.48;104996;1302;76559;-83
2022/09/05 02:26:22;;;;;;;;;;;;;;;26.14;48.73;101632.97;104888;1303;62056;-80
2022/09/05 02:28:53;;;;;;;;;;;;;;;26.14;49.06;101633.34;104892;1305;61835;-82
2022/09/05 02:31:22;;;;;;;;;;;;;;;26.14;48.83;101640.40;105049;1303;73128;-82
2022/09/05 02:34:07;;;;;;;;;;;;;;;26.14;48.96;101642.35;104935;1302;74809;-79
2022/09/05 02:36:41;;;;;;;;;;;;;;;26.14;48.84;101643.65;104932;1303;62200;-81
2022/09/05 02:39:20;;;;;;;;;;;;;;;26.14;48.91;101640.77;104965;1303;62095;-83
2022/09/05 02:41:51;;;;;;;;;;;;;;;26.14;48.97;101640.39;105014;1302;72770;-81
2022/09/05 02:44:23;;;;;;;;;;;;;;;26.14;48.80;101638.43;104891;1303;74446;-82
2022/09/05 02:46:51;;;;;;;;;;;;;;;26.13;48.89;101640.29;104873;1303;61863;-82
2022/09/05 02:49:26;;;;;;;;;;;;;;;26.12;48.78;101639.61;104852;1303;61981;-82
2022/09/05 02:51:54;;;;;;;;;;;;;;;26.13;48.91;101638.30;104942;1301;72817;-82
2022/09/05 02:54:21;;;;;;;;;;;;;;;26.12;49.05;101633.11;104986;1302;76672;-82
2022/09/05 02:56:50;;;;;;;;;;;;;;;26.13;48.98;101632.88;104934;1303;62212;-82
2022/09/05 02:59:29;;;;;;;;;;;;;;;26.12;48.93;101633.84;104905;1303;62084;-83
2022/09/05 03:02:15;;;;;;;;;;;;;;;26.12;48.90;101632.45;105013;1302;73982;-82
2022/09/05 03:04:46;;;;;;;;;;;;;;;26.12;48.88;101631.88;104821;1302;75738;-81
2022/09/05 03:07:19;;;;;;;;;;;;;;;26.11;48.97;101632.11;103362;1302;2156026;-81
2022/09/05 03:10:03;;;;;;;;;;;;;;;26.12;48.95;101637.66;104991;1302;61973;-82
2022/09/05 03:12:35;;;;;;;;;;;;;;;26.11;48.93;101634.81;104969;1302;71770;-81
2022/09/05 03:15:00;;;;;;;;;;;;;;;26.11;49.05;101638.60;104911;1302;76681;-83
2022/09/05 03:17:39;;;;;;;;;;;;;;;26.10;49.02;101642.96;104891;1303;62190;-82
2022/09/05 03:20:16;;;;;;;;;;;;;;;26.10;48.87;101650.26;104958;1302;61966;-84
2022/09/05 03:23:00;;;;;;;;;;;;;;;26.08;48.80;101657.58;104943;1302;72724;-84
2022/09/05 03:25:26;;;;;;;;;;;;;;;26.06;48.75;101655.23;104860;1302;75568;-84
2022/09/05 03:28:12;;;;;;;;;;;;;;;26.04;48.94;101651.06;104939;1302;62190;-82
2022/09/05 03:30:57;;;;;;;;;;;;;;;26.01;48.76;101654.36;104899;1302;61934;-84
2022/09/05 03:33:32;;;;;;;;;;;;;;;25.97;48.75;101654.11;104893;1302;74034;-84
2022/09/05 03:36:13;;;;;;;;;;;;;;;25.93;48.54;101655.30;104956;1302;74542;-84
2022/09/05 03:38:47;;;;;;;;;;;;;;;25.90;48.55;101657.72;104979;1302;61955;-84
2022/09/05 03:41:33;;;;;;;;;;;;;;;25.88;48.63;101663.29;104954;1302;61829;-83
2022/09/05 03:44:17;;;;;;;;;;;;;;;25.86;48.42;101670.30;104979;1302;72714;-82
2022/09/05 03:47:02;;;;;;;;;;;;;;;25.84;48.18;101669.92;104946;1302;75338;-83
2022/09/05 03:49:30;;;;;;;;;;;;;;;25.82;47.92;101670.46;104923;1302;62057;-84
2022/09/05 03:51:56;;;;;;;;;;;;;;;25.80;47.93;101671.91;104893;1302;61977;-83
2022/09/05 03:54:28;;;;;;;;;;;;;;;25.78;47.68;101672.37;104933;1302;62062;-84
2022/09/05 03:57:12;;;;;;;;;;;;;;;25.77;47.73;101672.30;104876;1302;75526;-83
2022/09/05 03:59:47;;;;;;;;;;;;;;;25.74;47.55;101672.46;104957;1302;62226;-82
2022/09/05 04:02:13;;;;;;;;;;;;;;;25.73;47.36;101670.76;104891;1302;61952;-84
2022/09/05 04:04:43;;;;;;;;;;;;;;;25.72;47.22;101678.06;104883;1302;71663;-83
2022/09/05 04:07:15;;;;;;;;;;;;;;;25.71;47.04;101678.70;104866;1303;76925;-82
2022/09/05 04:09:52;;;;;;;;;;;;;;;25.70;46.98;101676.27;104889;1302;59432;-83
2022/09/05 04:12:20;;;;;;;;;;;;;;;25.68;46.71;101679.98;104984;1302;62001;-84
2022/09/05 04:14:53;;;;;;;;;;;;;;;25.67;46.84;101680.77;104950;1302;74020;-83
2022/09/05 04:17:21;;;;;;;;;;;;;;;25.67;46.46;101684.45;104830;1303;76107;-82
2022/09/05 04:19:47;;;;;;;;;;;;;;;25.66;46.66;101688.63;104863;1305;62179;-83
2022/09/05 04:22:32;;;;;;;;;;;;;;;25.65;46.38;101691.20;104828;1302;62873;-83
2022/09/05 04:25:03;;;;;;;;;;;;;;;25.65;46.38;101696.14;104857;1303;72763;-83
2022/09/05 04:27:49;;;;;;;;;;;;;;;25.64;46.33;101701.42;104814;1305;75638;-82
2022/09/05 04:30:18;;;;;;;;;;;;;;;25.63;46.23;101699.71;104836;1305;62292;-83
2022/09/05 04:32:57;;;;;;;;;;;;;;;25.62;46.00;101703.33;104812;1303;63069;-82
2022/09/05 04:35:41;;;;;;;;;;;;;;;25.62;45.87;101704.99;104652;1305;71909;-84
2022/09/05 04:38:09;;;;;;;;;;;;;;;25.61;45.84;101703.63;104667;1302;76660;-82
2022/09/05 04:40:38;;;;;;;;;;;;;;;25.60;45.89;101704.02;104700;1302;62542;-83
2022/09/05 04:43:15;;;;;;;;;;;;;;;25.60;45.62;101709.82;104783;1302;62036;-81
2022/09/05 04:45:54;;;;;;;;;;;;;;;25.58;45.71;101712.09;104785;1302;73257;-82
2022/09/05 04:48:22;;;;;;;;;;;;;;;25.57;45.46;101715.07;104767;1302;76330;-81
2022/09/05 04:50:57;;;;;;;;;;;;;;;25.56;45.28;101716.76;104803;1302;62036;-82
2022/09/05 04:53:35;;;;;;;;;;;;;;;25.55;45.40;101714.71;104755;1302;61963;-81
2022/09/05 04:56:01;;;;;;;;;;;;;;;25.53;45.42;101714.16;104886;1302;74182;-83
2022/09/05 04:58:36;;;;;;;;;;;;;;;25.49;45.44;101716.23;104734;1305;62078;-82
2022/09/05 05:01:03;;;;;;;;;;;;;;;25.47;45.08;101720.75;104723;1302;62155;-82
2022/09/05 05:03:29;;;;;;;;;;;;;;;25.45;45.07;101719.74;104769;1302;61953;-81
2022/09/05 05:06:16;;;;;;;;;;;;;;;25.44;45.00;101720.40;104721;1303;62229;-81
2022/09/05 05:08:49;;;;;;;;;;;;;;;25.42;44.82;101719.65;104777;1303;75417;-82
2022/09/05 05:11:16;;;;;;;;;;;;;;;25.40;44.80;101715.68;104779;1305;62060;-82
2022/09/05 05:13:44;;;;;;;;;;;;;;;25.39;44.71;101722.36;104774;1304;62044;-82
2022/09/05 05:16:39;;;;;;;;;;;;;;;25.39;44.61;101720.61;104659;1303;73669;-82
2022/09/05 05:19:23;;;;;;;;;;;;;;;25.39;44.66;101721.50;104426;1309;75813;-81
2022/09/05 05:21:50;;;;;;;;;;;;;;;25.38;44.57;101723.02;104416;1308;62176;-83
2022/09/05 05:24:17;;;;;;;;;;;;;;;25.33;44.42;101723.38;104240;1309;61967;-81
2022/09/05 05:26:45;;;;;;;;;;;;;;;25.31;44.29;101722.77;104300;1308;62104;-82
2022/09/05 05:29:31;;;;;;;;;;;;;;;25.33;44.24;101722.12;104419;1309;75273;-83
2022/09/05 05:31:58;;;;;;;;;;;;;;;25.34;44.31;101717.91;104400;1309;61856;-80
2022/09/05 05:34:25;;;;;;;;;;;;;;;25.33;44.15;101721.18;104336;1308;62097;-81
2022/09/05 05:36:57;;;;;;;;;;;;;;;25.31;44.06;101722.60;104396;1309;73336;-82
2022/09/05 05:39:27;;;;;;;;;;;;;;;25.29;44.02;101722.60;104342;1309;76159;-83
2022/09/05 05:41:53;;;;;;;;;;;;;;;25.26;43.92;101725.64;104063;1308;61970;-83
2022/09/05 05:44:25;;;;;;;;;;;;;;;25.26;43.97;101726.15;103907;1309;62152;-80
2022/09/05 05:47:01;;;;;;;;;;;;;;;25.23;43.79;101721.20;104059;1308;71970;-80
2022/09/05 05:49:50;;;;;;;;;;;;;;;25.19;43.61;101721.34;103574;1307;74994;-82
2022/09/05 05:52:34;;;;;;;;;;;;;;;25.14;43.62;101724.05;103511;1309;62227;-82
2022/09/05 05:55:21;;;;;;;;;;;;;;;25.08;43.38;101729.73;103730;1306;60783;-82
2022/09/05 05:57:53;;;;;;;;;;;;;;;25.04;43.33;101728.58;103911;1305;73720;-81
2022/09/05 06:00:24;;;;;;;;;;;;;;;25.00;43.17;101726.50;104515;1302;75222;-82
2022/09/05 06:02:56;;;;;;;;;;;;;;;25.00;43.24;101727.05;104624;1305;60679;-82
2022/09/05 06:05:44;;;;;;;;;;;;;;;25.03;43.07;101729.36;104657;1305;60824;-82
2022/09/05 06:08:28;;;;;;;;;;;;;;;25.03;43.11;101732.40;105275;1304;73003;-82
2022/09/05 06:11:13;;;;;;;;;;;;;;;25.05;43.09;101731.18;105473;1302;75507;-82
2022/09/05 06:13:57;;;;;;;;;;;;;;;25.09;43.14;101730.71;105306;1305;60137;-81
2022/09/05 06:16:35;;;;;;;;;;;;;;;25.16;43.06;101728.23;104455;1305;62088;-81
2022/09/05 06:19:00;;;;;;;;;;;;;;;25.21;43.10;101735.60;104681;1305;74153;-81
2022/09/05 06:21:45;;;;;;;;;;;;;;;25.22;42.98;101740.92;104701;1303;60455;-81
2022/09/05 06:24:13;;;;;;;;;;;;;;;25.20;42.79;101744.31;104649;1305;60940;-82
2022/09/05 06:27:08;;;;;;;;;;;;;;;25.15;42.84;101739.09;104679;1302;61925;-82
2022/09/05 06:29:33;;;;;;;;;;;;;;;24.97;42.49;101742.78;103832;1309;73612;-82
2022/09/05 06:32:20;;;;;;;;;;;;;;;24.72;42.47;101746.52;103340;1308;62127;-81
2022/09/05 06:34:52;;;;;;;;;;;;;;;24.58;42.50;101745.83;103445;1311;62626;-83
2022/09/05 06:37:21;;;;;;;;;;;;;;;24.57;42.34;101746.11;104220;1311;60571;-81
2022/09/05 06:39:46;;;;;;;;;;;;;;;24.49;42.21;101747.95;104098;1311;74170;-81
2022/09/05 06:42:18;;;;;;;;;;;;;;;24.40;42.27;101750.23;104118;1311;62125;-81
2022/09/05 06:44:49;;;;;;;;;;;;;;;24.25;42.18;101756.84;104226;1308;59982;-81
2022/09/05 06:47:18;;;;;;;;;;;;;;;24.25;42.42;101763.12;104216;1309;61295;-81
2022/09/05 06:50:04;;;;;;;;;;;;;;;24.32;42.27;101768.80;104116;1309;73047;-81
2022/09/05 06:52:48;;;;;;;;;;;;;;;24.38;42.21;101773.55;104552;1308;75030;-81
2022/09/05 06:55:33;;;;;;;;;;;;;;;24.45;42.17;101772.70;104142;1308;62497;-81
2022/09/05 06:57:58;;;;;;;;;;;;;;;24.54;42.00;101775.48;104143;1311;62065;-82
2022/09/05 07:00:43;;;;;;;;;;;;;;;24.54;41.97;101775.33;104105;1309;62320;-82
2022/09/05 07:03:08;;;;;;;;;;;;;;;24.56;42.10;101769.98;104087;1309;76566;-80
2022/09/05 07:05:35;;;;;;;;;;;;;;;24.64;42.14;101776.66;103949;1305;62315;-85
2022/09/05 07:08:19;;;;;;;;;;;;;;;24.66;42.39;101779.36;104147;1303;62246;-83
2022/09/05 07:10:48;;;;;;;;;;;;;;;24.70;42.41;101783.92;104218;1304;72955;-82
2022/09/05 07:13:15;;;;;;;;;;;;;;;24.58;42.19;101784.73;104659;1303;76002;-82
2022/09/05 07:15:55;;;;;;;;;;;;;;;24.54;42.49;101783.39;104645;1303;60560;-83
2022/09/05 07:18:36;;;;;;;;;;;;;;;24.62;42.43;101783.25;104380;1304;62075;-81
2022/09/05 07:21:04;;;;;;;;;;;;;;;24.59;42.21;101780.39;104325;1305;71637;-82
2022/09/05 07:23:30;;;;;;;;;;;;;;;24.46;42.33;101782.52;104000;1305;74971;-80
2022/09/05 07:25:55;;;;;;;;;;;;;;;24.33;42.18;101781.30;104729;1305;60397;-82
2022/09/05 07:28:21;;;;;;;;;;;;;;;24.28;42.34;101780.36;104040;1305;62072;-81
2022/09/05 07:31:13;;;;;;;;;;;;;;;24.35;42.30;101785.33;103886;1302;62136;-82
2022/09/05 07:33:39;;;;;;;;;;;;;;;24.47;42.35;101778.86;104026;1303;74820;-82
2022/09/05 07:36:07;;;;;;;;;;;;;;;24.58;42.33;101778.64;103797;1303;62010;-80
2022/09/05 07:38:34;;;;;;;;;;;;;;;24.62;42.11;101780.54;105604;1302;59965;-81
2022/09/05 07:41:23;;;;;;;;;;;;;;;24.67;42.04;101782.36;105496;1304;60161;-81
2022/09/05 07:43:53;;;;;;;;;;;;;;;24.65;41.96;101783.63;105452;1302;66852;-81
2022/09/05 07:46:24;;;;;;;;;;;;;;;24.61;41.87;101784.58;104931;1305;60241;-82
2022/09/05 07:48:52;;;;;;;;;;;;;;;24.56;41.54;101785.12;105568;1302;60639;-82
2022/09/05 07:51:22;;;;;;;;;;;;;;;24.42;41.30;101784.97;105112;1304;64595;-82
2022/09/05 07:53:48;;;;;;;;;;;;;;;24.14;41.04;101781.35;104683;1305;74552;-83
2022/09/05 07:56:14;;;;;;;;;;;;;;;24.08;41.14;101784.45;104745;1305;62222;-80
2022/09/05 07:58:42;;;;;;;;;;;;;;;24.13;41.22;101783.95;104661;1304;60440;-81
2022/09/05 08:01:10;;;;;;;;;;;;;;;24.14;40.89;101786.41;104757;1305;71884;-82
2022/09/05 08:03:36;;;;;;;;;;;;;;;24.12;40.88;101783.64;104727;1304;75625;-81
2022/09/05 08:06:05;;;;;;;;;;;;;;;24.07;40.69;101790.77;104789;1303;62186;-82
2022/09/05 08:08:32;;;;;;;;;;;;;;;24.17;40.97;101789.59;104765;1305;61868;-85
2022/09/05 08:11:03;;;;;;;;;;;;;;;24.32;40.88;101787.52;104695;1305;72663;-83
2022/09/05 08:13:41;;;;;;;;;;;;;;;24.45;40.92;101788.55;104730;1303;75747;-82
2022/09/05 08:16:08;;;;;;;;;;;;;;;24.57;40.76;101790.73;104748;1303;62184;-82
2022/09/05 08:18:40;;;;;;;;;;;;;;;24.65;40.80;101792.03;104652;1305;62188;-82
2022/09/05 08:21:06;;;;;;;;;;;;;;;24.66;40.54;101790.70;104627;1304;72644;-82
2022/09/05 08:23:50;;;;;;;;;;;;;;;24.69;40.54;101789.26;105692;1304;76640;-82
2022/09/05 08:26:16;;;;;;;;;;;;;;;24.74;40.42;101789.92;105577;1303;60306;-82
2022/09/05 08:29:00;;;;;;;;;;;;;;;24.81;40.42;101790.16;105687;1304;60264;-82
2022/09/05 08:31:37;;;;;;;;;;;;;;;24.84;40.48;101793.02;104855;1305;64930;-82
2022/09/05 08:34:02;;;;;;;;;;;;;;;24.85;40.35;101788.48;104794;1301;76668;-81
2022/09/05 08:36:29;;;;;;;;;;;;;;;24.75;40.07;101784.09;104846;1304;62100;-81
2022/09/05 08:38:56;;;;;;;;;;;;;;;24.70;39.88;101779.45;104735;1303;60194;-80
2022/09/05 08:41:44;;;;;;;;;;;;;;;24.72;39.95;101783.81;104856;1304;62075;-81
2022/09/05 08:44:13;;;;;;;;;;;;;;;24.77;40.15;101784.86;104624;1302;76476;-81
2022/09/05 08:46:48;;;;;;;;;;;;;;;24.79;39.80;101780.77;104757;1302;62093;-82
2022/09/05 08:49:26;;;;;;;;;;;;;;;24.79;39.52;101781.30;104701;1302;62142;-83
2022/09/05 08:51:55;;;;;;;;;;;;;;;24.82;39.53;101781.52;104926;1302;74080;-82
2022/09/05 08:54:26;;;;;;;;;;;;;;;24.83;39.31;101781.01;104729;1303;75594;-82
2022/09/05 08:57:00;;;;;;;;;;;;;;;24.82;39.34;101777.16;104986;1303;62070;-83
2022/09/05 08:59:27;;;;;;;;;;;;;;;24.86;39.29;101773.27;104785;1305;62184;-83
2022/09/05 09:02:11;;;;;;;;;;;;;;;24.89;39.05;101771.39;104808;1303;73184;-84
2022/09/05 09:04:40;;;;;;;;;;;;;;;24.93;38.95;101766.08;104515;1303;74639;-83
2022/09/05 09:07:26;;;;;;;;;;;;;;;24.97;39.08;101760.95;104740;1303;61956;-83
2022/09/05 09:10:10;;;;;;;;;;;;;;;25.00;38.86;101764.30;104727;1302;62025;-82
2022/09/05 09:13:13;;;;;;;;;;;;;;;25.03;39.07;101761.04;104900;1302;71493;-82
2022/09/05 09:15:39;;;;;;;;;;;;;;;25.06;38.98;101762.42;104801;1302;76809;-83
2022/09/05 09:18:12;;;;;;;;;;;;;;;25.02;38.94;101763.65;104675;1305;62051;-83
2022/09/05 09:20:38;;;;;;;;;;;;;;;24.97;38.75;101762.94;104835;1302;62303;-82
2022/09/05 09:23:20;;;;;;;;;;;;;;;24.92;38.68;101765.61;104730;1302;62652;-82
2022/09/05 09:26:03;;;;;;;;;;;;;;;24.90;38.70;101765.20;104778;1302;75714;-81
2022/09/05 09:28:35;;;;;;;;;;;;;;;24.92;38.72;101763.23;104799;1302;62122;-82
2022/09/05 09:31:19;;;;;;;;;;;;;;;24.97;38.57;101763.27;104676;1305;62790;-83
2022/09/05 09:33:48;;;;;;;;;;;;;;;24.97;38.66;101758.77;104742;1302;73957;-83
2022/09/05 09:36:33;;;;;;;;;;;;;;;24.99;38.72;101757.96;104690;1303;74385;-83
2022/09/05 09:39:01;;;;;;;;;;;;;;;24.91;38.54;101759.78;104731;1302;61957;-82
2022/09/05 09:41:30;;;;;;;;;;;;;;;24.90;38.52;101757.81;104688;1305;62112;-82
2022/09/05 09:44:07;;;;;;;;;;;;;;;24.97;38.70;101758.63;104759;1302;74086;-81
2022/09/05 09:46:40;;;;;;;;;;;;;;;25.02;38.66;101753.69;104727;1302;76628;-82
2022/09/05 09:49:14;;;;;;;;;;;;;;;25.08;38.73;101753.08;104741;1303;62026;-83
2022/09/05 09:51:46;;;;;;;;;;;;;;;25.13;38.68;101750.75;104735;1302;61953;-87
2022/09/05 09:54:30;;;;;;;;;;;;;;;25.18;38.56;101751.11;104697;1302;72907;-82
2022/09/05 09:57:14;;;;;;;;;;;;;;;25.23;38.56;101749.86;104681;1305;75513;-82
2022/09/05 09:59:47;;;;;;;;;;;;;;;25.27;38.41;101743.08;104717;1302;61883;-82
2022/09/05 10:02:27;;;;;;;;;;;;;;;25.31;38.59;101742.78;104855;1303;62317;-82
2022/09/05 10:04:57;;;;;;;;;;;;;;;25.34;38.56;101741.84;104845;1303;73761;-79
2022/09/05 10:07:23;;;;;;;;;;;;;;;25.36;38.49;101741.00;104826;1303;76615;-82
2022/09/05 10:10:05;;;;;;;;;;;;;;;25.39;38.60;101741.70;104700;1305;62210;-82
2022/09/05 10:12:36;;;;;;;;;;;;;;;25.41;38.66;101740.25;104817;1302;61961;-81
2022/09/05 10:15:03;;;;;;;;;;;;;;;25.42;38.50;101736.00;104773;1302;72862;-82
2022/09/05 10:17:35;;;;;;;;;;;;;;;25.45;38.49;101732.98;104563;1305;75784;-83
2022/09/05 10:20:20;;;;;;;;;;;;;;;25.46;38.47;101728.89;104659;1304;61951;-81
2022/09/05 10:23:15;;;;;;;;;;;;;;;25.48;38.62;101724.80;104680;1306;61171;-82
2022/09/05 10:25:59;;;;;;;;;;;;;;;25.50;38.72;101726.08;104162;1311;73830;-82
2022/09/05 10:28:47;;;;;;;;;;;;;;;25.52;38.65;101729.51;104257;1309;76642;-81
2022/09/05 10:31:19;;;;;;;;;;;;;;;25.53;38.73;101721.89;104406;1310;62104;-81
2022/09/05 10:33:45;;;;;;;;;;;;;;;25.55;38.79;101711.10;104377;1310;62035;-81
2022/09/05 10:36:24;;;;;;;;;;;;;;;25.57;38.70;101711.50;104288;1311;63172;-82
2022/09/05 10:38:52;;;;;;;;;;;;;;;25.58;38.78;101708.73;104435;1310;75417;-82
2022/09/05 10:41:18;;;;;;;;;;;;;;;25.59;38.79;101712.05;104453;1312;62080;-81
2022/09/05 10:43:58;;;;;;;;;;;;;;;25.60;38.55;101707.86;104368;1311;61993;-82
2022/09/05 10:46:25;;;;;;;;;;;;;;;25.61;38.50;101706.30;104475;1309;73451;-81
2022/09/05 10:48:54;;;;;;;;;;;;;;;25.62;38.83;101705.52;104241;1310;75191;-80
2022/09/05 10:51:22;;;;;;;;;;;;;;;25.63;38.94;101699.85;104267;1309;61852;-82
2022/09/05 10:54:06;;;;;;;;;;;;;;;25.64;38.88;101701.73;104240;1310;62043;-83
2022/09/05 10:56:36;;;;;;;;;;;;;;;25.66;38.79;101703.06;104295;1310;72754;-81
2022/09/05 10:59:03;;;;;;;;;;;;;;;25.66;39.09;101702.66;104255;1310;75537;-84
2022/09/05 11:01:40;;;;;;;;;;;;;;;25.68;39.08;101700.05;104406;1309;62311;-81
2022/09/05 11:04:09;;;;;;;;;;;;;;;25.68;39.20;101697.45;104808;1305;61908;-81
2022/09/05 11:06:41;;;;;;;;;;;;;;;25.69;39.15;101692.52;104662;1305;72515;-81
2022/09/05 11:09:20;;;;;;;;;;;;;;;25.71;39.21;101692.04;104674;1305;76754;-82
2022/09/05 11:11:54;;;;;;;;;;;;;;;25.71;39.43;101690.40;104775;1304;61420;-81
2022/09/05 11:14:33;;;;;;;;;;;;;;;25.71;39.46;101687.84;104767;1305;62182;-81
2022/09/05 11:17:12;;;;;;;;;;;;;;;25.73;39.74;101682.16;104789;1305;73857;-82
2022/09/05 11:19:40;;;;;;;;;;;;;;;25.73;39.75;101676.17;104799;1305;75982;-83
2022/09/05 11:22:08;;;;;;;;;;;;;;;25.74;39.82;101676.50;104663;1305;62065;-85
2022/09/05 11:24:34;;;;;;;;;;;;;;;25.74;40.02;101673.56;104794;1305;61962;-83
2022/09/05 11:27:04;;;;;;;;;;;;;;;25.75;40.11;101671.89;104750;1305;62159;-89
2022/09/05 11:29:33;;;;;;;;;;;;;;;25.76;40.10;101675.08;104713;1305;75044;-82
2022/09/05 11:32:01;;;;;;;;;;;;;;;25.75;40.36;101670.58;104886;1305;62069;-82
2022/09/05 11:34:41;;;;;;;;;;;;;;;25.76;40.26;101668.94;104874;1305;62089;-83
2022/09/05 11:37:15;;;;;;;;;;;;;;;25.77;40.45;101668.14;104646;1305;73135;-81
2022/09/05 11:39:59;;;;;;;;;;;;;;;25.77;40.54;101658.38;104750;1304;75604;-81
2022/09/05 11:42:34;;;;;;;;;;;;;;;25.78;40.66;101655.09;104830;1305;62125;-82
2022/09/05 11:45:15;;;;;;;;;;;;;;;25.79;40.58;101649.45;104796;1303;61933;-81
2022/09/05 11:48:00;;;;;;;;;;;;;;;25.79;40.77;101648.52;104825;1304;74141;-83
2022/09/05 11:50:25;;;;;;;;;;;;;;;25.79;41.01;101649.25;104845;1305;77723;-82
2022/09/05 11:53:16;;;;;;;;;;;;;;;25.79;41.16;101646.51;104907;1305;62016;-82
2022/09/05 11:55:53;;;;;;;;;;;;;;;25.80;41.19;101643.95;104677;1305;62109;-92
2022/09/05 11:58:22;;;;;;;;;;;;;;;25.80;41.29;101644.33;104906;1305;72000;-82
2022/09/05 12:00:59;;;;;;;;;;;;;;;25.80;41.32;101642.11;104885;1305;75473;-82
2022/09/05 12:03:35;;;;;;;;;;;;;;;25.81;41.27;101641.89;104919;1305;61990;-82
2022/09/05 12:06:07;;;;;;;;;;;;;;;25.81;41.50;101638.98;104874;1305;61833;-84
2022/09/05 12:08:51;;;;;;;;;;;;;;;25.80;41.67;101637.59;104867;1305;73043;-80
2022/09/05 12:11:28;;;;;;;;;;;;;;;25.81;41.73;101637.73;104875;1305;76124;-83
2022/09/05 12:13:54;;;;;;;;;;;;;;;25.81;41.74;101633.07;104891;1305;61953;-83
2022/09/05 12:16:22;;;;;;;;;;;;;;;25.81;41.66;101632.49;104895;1305;63130;-83
2022/09/05 12:18:56;;;;;;;;;;;;;;;25.81;41.92;101635.54;104863;1305;73052;-83
2022/09/05 12:21:51;;;;;;;;;;;;;;;25.81;41.97;101629.24;104861;1305;75727;-83
2022/09/05 12:24:20;;;;;;;;;;;;;;;25.81;41.98;101631.58;104791;1303;62126;-82
2022/09/05 12:26:48;;;;;;;;;;;;;;;25.81;42.22;101629.77;104892;1305;62059;-82
2022/09/05 12:29:21;;;;;;;;;;;;;;;25.81;42.20;101627.23;104820;1305;73701;-81
2022/09/05 12:31:50;;;;;;;;;;;;;;;25.82;42.27;101626.30;104846;1306;75701;-83
2022/09/05 12:34:34;;;;;;;;;;;;;;;25.81;42.38;101623.59;104916;1304;62086;-83
2022/09/05 12:36:59;;;;;;;;;;;;;;;25.82;42.52;101622.68;104876;1305;61976;-82
2022/09/05 12:39:30;;;;;;;;;;;;;;;25.81;42.54;101621.96;104850;1303;62115;-82
2022/09/05 12:42:02;;;;;;;;;;;;;;;25.82;42.60;101619.41;104848;1305;76511;-82
2022/09/05 12:44:36;;;;;;;;;;;;;;;25.82;42.79;101617.42;104899;1305;62104;-82
2022/09/05 12:47:07;;;;;;;;;;;;;;;25.82;42.69;101611.11;104881;1304;61952;-82
2022/09/05 12:49:42;;;;;;;;;;;;;;;25.82;42.84;101610.20;104838;1305;72882;-84
2022/09/05 12:52:12;;;;;;;;;;;;;;;25.82;42.96;101610.55;104857;1305;74493;-82
2022/09/05 12:54:41;;;;;;;;;;;;;;;25.82;42.91;101608.40;104899;1306;62594;-83
2022/09/05 12:57:08;;;;;;;;;;;;;;;25.83;43.06;101605.31;104873;1303;61967;-83
2022/09/05 12:59:34;;;;;;;;;;;;;;;25.82;43.01;101602.29;104889;1303;72265;-82
2022/09/05 13:02:06;;;;;;;;;;;;;;;25.82;43.03;101606.07;104800;1303;62200;-83